createdAt,value
2023-03-08T22:10:59.385Z,65.24
2023-03-08T22:12:06.160Z,64.91
2023-03-08T22:13:16.010Z,64.81
2023-03-08T22:14:21.409Z,64.58
2023-03-08T22:15:29.581Z,64.43
2023-03-08T22:16:35.058Z,64.31
2023-03-08T22:17:41.993Z,64.25
2023-03-08T22:18:48.054Z,63.70
2023-03-08T22:19:55.450Z,63.61
2023-03-08T22:21:01.184Z,64.17
2023-03-08T22:22:07.905Z,64.17
2023-03-08T22:23:14.630Z,64.08
2023-03-08T22:24:21.970Z,64.04
2023-03-08T22:25:28.671Z,64.04
2023-03-08T22:26:35.909Z,64.29
2023-03-08T22:27:42.885Z,64.46
2023-03-08T22:28:48.386Z,64.61
2023-03-08T22:29:55.113Z,64.67
2023-03-08T22:31:01.787Z,64.80
2023-03-08T22:32:09.141Z,64.77
2023-03-08T22:33:15.907Z,64.59
2023-03-08T22:34:21.303Z,64.62
2023-03-08T22:35:28.105Z,64.74
2023-03-08T22:36:33.477Z,64.58
2023-03-08T22:37:40.281Z,64.36
2023-03-08T22:38:45.657Z,64.36
2023-03-08T22:39:52.826Z,64.53
2023-03-08T22:41:00.067Z,64.93
2023-03-08T22:42:08.559Z,64.86
2023-03-08T22:43:14.981Z,65.14
2023-03-08T22:44:21.735Z,64.69
2023-03-08T22:45:27.176Z,64.68
2023-03-08T22:46:34.364Z,65.08
2023-03-08T22:47:39.856Z,64.86
2023-03-08T22:48:47.313Z,64.83
2023-03-08T22:49:54.692Z,64.66
2023-03-08T22:51:10.317Z,64.54
2023-03-08T22:52:18.252Z,64.78
2023-03-08T22:53:24.281Z,64.25
2023-03-08T22:54:31.668Z,64.47
2023-03-08T22:55:38.437Z,64.50
2023-03-08T22:56:49.887Z,64.61
2023-03-08T22:57:57.245Z,64.31
2023-03-08T22:59:04.600Z,64.57
2023-03-08T23:00:15.810Z,64.25
2023-03-08T23:01:26.012Z,64.21
2023-03-08T23:02:35.357Z,64.46
2023-03-08T23:03:43.513Z,64.32
2023-03-08T23:04:50.738Z,64.19
2023-03-08T23:05:57.919Z,64.41
2023-03-08T23:07:09.285Z,64.85
2023-03-08T23:08:16.602Z,64.83
2023-03-08T23:09:25.754Z,64.68
2023-03-08T23:10:33.432Z,64.78
2023-03-08T23:11:40.978Z,64.67
2023-03-08T23:12:48.163Z,64.89
2023-03-08T23:14:03.182Z,64.56
2023-03-08T23:15:21.176Z,64.94
2023-03-08T23:16:26.801Z,64.42
2023-03-08T23:17:33.713Z,65.05
2023-03-08T23:18:39.174Z,65.11
2023-03-08T23:19:46.588Z,64.85
2023-03-08T23:20:52.008Z,64.42
2023-03-08T23:21:59.233Z,64.47
2023-03-08T23:23:04.551Z,64.30
2023-03-08T23:24:11.701Z,64.50
2023-03-08T23:25:17.090Z,64.49
2023-03-08T23:26:28.059Z,64.42
2023-03-08T23:27:34.368Z,64.10
2023-03-08T23:28:41.560Z,63.98
2023-03-08T23:29:51.605Z,64.11
2023-03-08T23:31:00.593Z,64.24
2023-03-08T23:32:10.126Z,64.07
2023-03-08T23:33:15.665Z,63.97
2023-03-08T23:34:23.611Z,64.23
2023-03-08T23:35:30.924Z,64.22
2023-03-08T23:36:39.457Z,64.14
2023-03-08T23:37:49.646Z,64.56
2023-03-08T23:38:58.137Z,64.94
2023-03-08T23:40:06.030Z,65.11
2023-03-08T23:41:13.023Z,65.40
2023-03-08T23:42:26.353Z,65.22
2023-03-08T23:43:35.454Z,65.38
2023-03-08T23:44:42.679Z,65.05
2023-03-08T23:45:52.154Z,65.11
2023-03-08T23:46:57.775Z,64.76
2023-03-08T23:48:05.759Z,64.91
2023-03-08T23:49:12.341Z,64.62
2023-03-08T23:50:19.162Z,64.21
2023-03-08T23:51:25.135Z,64.20
2023-03-08T23:52:31.937Z,64.32
2023-03-08T23:53:39.681Z,64.56
2023-03-08T23:54:52.195Z,64.71
2023-03-08T23:55:58.647Z,64.32
2023-03-08T23:57:10.726Z,64.89
2023-03-08T23:58:17.405Z,64.64
2023-03-08T23:59:28.621Z,65.04
